Pagrindinis puslapis
METAR-TAF:

METAR-TAF

Oro uostai :

Pekino tarptautinis oro uostas

Pekinas, Kinija

platuma: 39-56N, ilguma: 116-17E, Aukštis: 55 m

Dabartinis oras

Ataskaita buvo paskelbta 25 minutes, ne 14:30 UTC
Vėjas 2 kt iš Šiaurės Rytų
Temperatūra -3°C
Drėgmė 68%
Slėgis 1024 hPa
Matomumas: 8000 m

METAR: ZBAA 271430Z 05001MPS 8000 NSC M03/M08 Q1024 NOSIG

Laikas: 22:55 (14:55 UTC)

Prognozė

Ataskaita buvo paskelbta 5 valandos ir 51 minutes, ne 09:04 UTC
Prognozė galioja nuo 27 metu 12 UTC su 28 metu 12 UTC
Vėjas 8 kt iš Šiaurės/Šiaurės Rytų
Matomumas: 3500 m
rūkana

TAF: ZBAA 270904Z 2712/2812 03004MPS 3500 BR NSC TX06/2807Z TNM05/2721Z

Orai ataskaitas ir orų prognozės (METAR, TAF).

turimą stotys yra geltonos ir raudonos taškus žemėlapyje.

Perkelti pele per norėdami pamatyti stoties vardą.

Tada spustelėkite, norėdami matyti oro stebėjimo ir prognozės.

Norėdami pakeisti žemėlapį: spustelėkite ant žalios mygtukų su juodo kryžiaus žemyn,; žalią mygtuką su brūkšneliu, jei norite nutolinti; arba žalių rodyklių gretimoms žemėlapius.


METAR-TAF: